Time;durP1;ratioP1;P1;durP2;ratioP2;P2;SDS_P1;SDS_P2;PMS_P1;PMS_P2;Temp;Humidity;BMP_temperature;BMP_pressure;BME280_temperature;BME280_humidity;BME280_pressure;Samples;Min_cycle;Max_cycle;Signal;HPM_P1;HPM_P2
2021/10/16 04:00:44;;;;;;;8.15;3.05;;;9.30;99.90;;;;;;5783546;23;20481;-66
2021/10/16 04:03:11;;;;;;;4.18;2.42;;;9.30;99.90;;;;;;4948239;28;20221;-66
2021/10/16 04:05:37;;;;;;;2.90;2.08;;;9.30;99.90;;;;;;4937193;29;20682;-66
2021/10/16 04:08:05;;;;;;;6.60;2.70;;;9.30;99.90;;;;;;4937892;29;20249;-68
2021/10/16 04:10:32;;;;;;;2.67;2.35;;;9.30;99.90;;;;;;4936683;29;20281;-68
2021/10/16 04:12:59;;;;;;;2.40;2.30;;;9.30;99.90;;;;;;4936741;29;20269;-72
2021/10/16 04:15:25;;;;;;;2.45;2.30;;;9.30;99.90;;;;;;4937131;29;20670;-72
2021/10/16 04:17:53;;;;;;;2.25;2.03;;;9.30;99.90;;;;;;4936954;29;20327;-72
2021/10/16 04:20:21;;;;;;;2.40;2.20;;;9.30;99.90;;;;;;4936853;29;20233;-72
2021/10/16 04:22:47;;;;;;;4.20;2.70;;;9.30;99.90;;;;;;4936461;29;20622;-68
2021/10/16 04:25:14;;;;;;;9.20;3.17;;;9.30;99.90;;;;;;4936267;29;20611;-68
2021/10/16 04:27:43;;;;;;;3.38;3.08;;;9.30;99.90;;;;;;4936823;29;20214;-69
2021/10/16 04:30:11;;;;;;;3.20;2.90;;;9.30;99.90;;;;;;4936759;29;20341;-68
2021/10/16 04:32:37;;;;;;;10.57;3.53;;;9.20;99.90;;;;;;4936396;29;20284;-69
2021/10/16 04:35:08;;;;;;;6.45;3.15;;;9.20;99.90;;;;;;4935400;29;20654;-67
2021/10/16 04:37:35;;;;;;;3.25;2.95;;;9.20;99.90;;;;;;4936574;29;20265;-68
2021/10/16 04:40:08;;;;;;;6.63;3.78;;;9.10;99.90;;;;;;4935770;29;20222;-68
2021/10/16 04:42:35;;;;;;;5.65;3.80;;;9.10;99.90;;;;;;4937200;29;20210;-68
2021/10/16 04:45:02;;;;;;;4.28;3.33;;;9.00;99.90;;;;;;4936534;29;20555;-68
2021/10/16 04:47:29;;;;;;;6.65;3.88;;;8.90;99.90;;;;;;4936464;29;20244;-67
2021/10/16 04:49:56;;;;;;;8.05;4.60;;;8.90;99.90;;;;;;4936174;29;20289;-67
2021/10/16 04:52:24;;;;;;;9.65;4.35;;;8.90;99.90;;;;;;4936264;29;20652;-68
2021/10/16 04:54:50;;;;;;;13.95;4.00;;;8.80;99.90;;;;;;4935834;29;20217;-68
2021/10/16 04:57:17;;;;;;;7.88;4.03;;;8.80;99.90;;;;;;4936275;29;20214;-67
2021/10/16 04:59:43;;;;;;;4.70;4.22;;;8.80;99.90;;;;;;4936048;29;20209;-68
2021/10/16 05:02:10;;;;;;;5.25;4.05;;;8.80;99.90;;;;;;4935760;29;20233;-68
2021/10/16 05:04:37;;;;;;;9.52;5.78;;;8.80;99.90;;;;;;4935941;29;20262;-68
2021/10/16 05:07:05;;;;;;;6.68;4.05;;;8.70;99.90;;;;;;4935634;29;20265;-72
2021/10/16 05:09:34;;;;;;;6.80;4.30;;;8.70;99.90;;;;;;4935393;29;20216;-72
2021/10/16 05:12:00;;;;;;;4.55;3.90;;;8.70;99.90;;;;;;4936076;29;20226;-72
2021/10/16 05:14:27;;;;;;;6.43;4.50;;;8.70;99.90;;;;;;4935525;29;20276;-71
2021/10/16 05:16:54;;;;;;;6.68;4.80;;;8.70;99.90;;;;;;4936067;29;20278;-68
2021/10/16 05:19:20;;;;;;;6.35;4.22;;;8.60;99.90;;;;;;4935734;29;20309;-69
2021/10/16 05:21:47;;;;;;;7.70;5.30;;;8.60;99.90;;;;;;4936069;29;20690;-68
2021/10/16 05:24:14;;;;;;;5.22;4.50;;;8.50;99.90;;;;;;4934866;29;20235;-68
2021/10/16 05:26:42;;;;;;;5.13;4.60;;;8.40;99.90;;;;;;4935796;29;20277;-68
2021/10/16 05:29:08;;;;;;;5.30;4.70;;;8.40;99.90;;;;;;4935646;29;20322;-68
2021/10/16 05:31:35;;;;;;;6.85;5.13;;;8.30;99.90;;;;;;4935640;29;20226;-68
2021/10/16 05:34:02;;;;;;;7.30;4.97;;;8.30;99.90;;;;;;4935382;29;20273;-69
2021/10/16 05:36:28;;;;;;;7.07;4.85;;;8.30;99.90;;;;;;4935525;29;20257;-69
2021/10/16 05:38:55;;;;;;;6.25;4.93;;;8.30;99.90;;;;;;4935295;29;20217;-68
2021/10/16 05:41:21;;;;;;;6.43;5.60;;;8.30;99.90;;;;;;4935043;29;20614;-68
2021/10/16 05:43:49;;;;;;;6.50;4.68;;;8.30;99.90;;;;;;4935338;29;20218;-68
2021/10/16 05:46:16;;;;;;;6.32;4.90;;;8.30;99.90;;;;;;4935261;29;20206;-67
2021/10/16 05:48:43;;;;;;;6.40;5.18;;;8.30;99.90;;;;;;4935389;29;20210;-68
2021/10/16 05:51:11;;;;;;;12.13;5.90;;;8.30;99.90;;;;;;4935569;29;20225;-67
2021/10/16 05:53:37;;;;;;;11.82;5.70;;;8.30;99.90;;;;;;4935044;29;20218;-67
2021/10/16 05:56:04;;;;;;;5.95;5.43;;;8.40;99.90;;;;;;4934807;29;20253;-68
2021/10/16 05:58:31;;;;;;;6.78;4.80;;;8.40;99.90;;;;;;4935081;29;20649;-68
2021/10/16 06:01:02;;;;;;;7.07;4.40;;;8.40;99.90;;;;;;4934742;29;20281;-68
2021/10/16 06:03:28;;;;;;;6.20;5.15;;;8.40;99.90;;;;;;4935246;29;20213;-68
2021/10/16 06:05:57;;;;;;;9.82;5.13;;;8.50;99.90;;;;;;4935151;29;20232;-68
2021/10/16 06:08:24;;;;;;;8.38;5.35;;;8.50;99.90;;;;;;4934687;29;20214;-67
2021/10/16 06:10:51;;;;;;;9.82;5.88;;;8.50;99.90;;;;;;4934679;29;20565;-71
2021/10/16 06:13:18;;;;;;;5.93;4.43;;;8.60;99.90;;;;;;4934796;29;20301;-72
2021/10/16 06:15:44;;;;;;;7.85;5.18;;;8.60;99.90;;;;;;4934923;29;20237;-70
2021/10/16 06:18:13;;;;;;;9.88;4.88;;;8.60;99.90;;;;;;4935114;29;20276;-71
2021/10/16 06:20:40;;;;;;;4.78;4.28;;;8.60;99.90;;;;;;4934865;29;20226;-71
2021/10/16 06:23:07;;;;;;;7.57;4.55;;;8.60;99.90;;;;;;4934469;29;20217;-66
2021/10/16 06:25:34;;;;;;;6.75;4.88;;;8.70;99.90;;;;;;4934506;29;20217;-66
2021/10/16 06:28:00;;;;;;;7.18;4.55;;;8.70;99.90;;;;;;4934539;29;20214;-67
2021/10/16 06:30:27;;;;;;;7.82;4.60;;;8.70;99.90;;;;;;4946433;29;20233;-66
2021/10/16 06:32:54;;;;;;;7.35;3.90;;;8.70;99.90;;;;;;4953715;29;20205;-66
2021/10/16 06:35:22;;;;;;;13.68;5.65;;;8.80;99.90;;;;;;4953365;29;20502;-66
2021/10/16 06:37:48;;;;;;;6.93;4.15;;;8.90;99.90;;;;;;4953212;29;20217;-66
2021/10/16 06:40:15;;;;;;;5.28;3.95;;;8.90;99.90;;;;;;4953671;29;20205;-66
2021/10/16 06:42:42;;;;;;;7.30;4.45;;;8.90;99.90;;;;;;4953317;29;20229;-67
2021/10/16 06:45:09;;;;;;;12.80;6.22;;;9.00;99.90;;;;;;4953748;29;20208;-67
2021/10/16 06:47:36;;;;;;;6.93;3.97;;;9.00;99.90;;;;;;4953984;29;20216;-67
2021/10/16 06:50:03;;;;;;;5.03;4.10;;;9.00;99.90;;;;;;4956638;29;20205;-70
2021/10/16 06:52:31;;;;;;;5.00;4.07;;;9.10;99.90;;;;;;4957345;29;20233;-70
2021/10/16 06:54:57;;;;;;;5.85;3.90;;;9.10;99.90;;;;;;4956483;28;20221;-70
2021/10/16 06:57:24;;;;;;;6.40;3.78;;;9.20;99.90;;;;;;4956942;28;20259;-68
2021/10/16 06:59:51;;;;;;;6.43;5.00;;;9.20;99.90;;;;;;4957410;29;20205;-72
2021/10/16 07:02:18;;;;;;;4.07;3.88;;;9.30;99.90;;;;;;4956521;29;20292;-71
2021/10/16 07:04:45;;;;;;;6.22;4.20;;;9.30;99.90;;;;;;4938024;29;20305;-72
2021/10/16 07:07:12;;;;;;;4.30;3.58;;;9.40;99.90;;;;;;4939668;29;20265;-71
2021/10/16 07:09:40;;;;;;;6.60;4.22;;;9.40;99.90;;;;;;4941028;29;20571;-70
2021/10/16 07:12:08;;;;;;;4.63;3.67;;;9.50;99.90;;;;;;4941260;29;20236;-69
2021/10/16 07:14:35;;;;;;;4.15;3.85;;;9.50;99.90;;;;;;4938017;29;20269;-68
2021/10/16 07:17:01;;;;;;;5.30;3.85;;;9.60;99.90;;;;;;4938222;29;20218;-68
2021/10/16 07:19:28;;;;;;;11.13;4.57;;;9.60;99.90;;;;;;4937942;29;20213;-68
2021/10/16 07:21:55;;;;;;;5.75;4.13;;;9.70;99.90;;;;;;4937954;29;20229;-68
2021/10/16 07:24:21;;;;;;;3.70;3.40;;;9.70;99.90;;;;;;4936896;29;20615;-69
2021/10/16 07:26:50;;;;;;;4.45;3.20;;;9.70;99.90;;;;;;4937820;29;20281;-69
2021/10/16 07:29:17;;;;;;;4.80;3.45;;;9.70;99.90;;;;;;4937817;29;20209;-68
2021/10/16 07:31:44;;;;;;;3.55;3.05;;;9.70;99.90;;;;;;4937717;29;20228;-68
2021/10/16 07:34:10;;;;;;;4.35;2.45;;;9.80;99.90;;;;;;4937479;29;20620;-68
2021/10/16 07:36:38;;;;;;;5.50;3.30;;;9.80;99.90;;;;;;4937457;29;20214;-68
2021/10/16 07:39:07;;;;;;;3.63;3.35;;;9.90;99.90;;;;;;4936882;29;20214;-68
2021/10/16 07:41:34;;;;;;;4.70;2.72;;;9.90;99.90;;;;;;4954283;29;20361;-68
2021/10/16 07:44:02;;;;;;;4.35;3.30;;;10.00;99.90;;;;;;4956477;29;20236;-68
2021/10/16 07:46:29;;;;;;;3.42;3.13;;;10.10;99.90;;;;;;4956937;29;20213;-70
2021/10/16 07:48:56;;;;;;;3.47;3.10;;;10.10;99.90;;;;;;4960352;29;20220;-70
2021/10/16 07:51:22;;;;;;;5.35;2.88;;;10.20;99.90;;;;;;4959373;29;20281;-70
2021/10/16 07:53:49;;;;;;;7.93;3.65;;;10.30;99.90;;;;;;4958012;29;20276;-70
2021/10/16 07:56:16;;;;;;;3.05;2.28;;;10.40;99.90;;;;;;4957630;29;20272;-69
2021/10/16 07:58:43;;;;;;;3.58;2.63;;;10.30;99.90;;;;;;4956290;29;20295;-68
2021/10/16 08:01:11;;;;;;;2.78;2.63;;;10.40;99.90;;;;;;4955932;29;20240;-68
2021/10/16 08:03:38;;;;;;;2.67;2.30;;;10.40;99.90;;;;;;4956189;29;20244;-68
2021/10/16 08:06:05;;;;;;;2.53;2.42;;;10.40;99.90;;;;;;4956087;28;20217;-68
2021/10/16 08:08:32;;;;;;;3.50;2.58;;;10.40;99.90;;;;;;4955960;28;20638;-67
2021/10/16 08:10:59;;;;;;;5.55;2.88;;;10.50;99.90;;;;;;4955659;29;20233;-68
2021/10/16 08:13:28;;;;;;;5.43;3.22;;;10.50;99.90;;;;;;4955899;29;20237;-68
2021/10/16 08:15:55;;;;;;;5.60;3.78;;;10.60;99.90;;;;;;4955990;29;20206;-68
2021/10/16 08:18:23;;;;;;;4.68;3.60;;;10.60;99.90;;;;;;4956130;29;20260;-71
2021/10/16 08:20:50;;;;;;;3.90;2.80;;;10.70;99.90;;;;;;4955799;29;20741;-71
2021/10/16 08:23:17;;;;;;;7.35;2.63;;;10.80;99.90;;;;;;4955491;29;20233;-71
2021/10/16 08:25:43;;;;;;;6.47;2.78;;;10.80;99.90;;;;;;4955398;29;20243;-71
2021/10/16 08:28:11;;;;;;;5.43;3.07;;;10.80;99.90;;;;;;4956072;29;20272;-71
2021/10/16 08:30:40;;;;;;;2.70;2.50;;;10.90;99.90;;;;;;4944767;29;20494;-72
2021/10/16 08:33:06;;;;;;;3.75;3.33;;;10.90;99.90;;;;;;4936389;29;20210;-71
2021/10/16 08:35:34;;;;;;;6.40;2.40;;;11.00;99.90;;;;;;4936433;29;20217;-71
2021/10/16 08:38:01;;;;;;;2.13;1.93;;;11.10;99.90;;;;;;4936144;29;21047;-71
2021/10/16 08:40:28;;;;;;;2.50;2.33;;;11.10;99.90;;;;;;4936272;29;20967;-71
2021/10/16 08:42:55;;;;;;;4.23;2.97;;;11.20;99.90;;;;;;4936396;29;20226;-71
2021/10/16 08:45:22;;;;;;;2.70;2.50;;;11.20;99.90;;;;;;4936523;29;20824;-71
2021/10/16 08:47:48;;;;;;;3.67;2.40;;;11.20;99.90;;;;;;4936278;29;20825;-71
2021/10/16 08:50:15;;;;;;;6.97;2.17;;;11.30;99.90;;;;;;4936495;29;20474;-68
2021/10/16 08:52:43;;;;;;;2.73;2.63;;;11.30;99.90;;;;;;4935993;29;20524;-69
2021/10/16 08:55:10;;;;;;;4.80;2.10;;;11.40;99.90;;;;;;4935890;29;20469;-70
2021/10/16 08:57:41;;;;;;;2.73;2.30;;;11.40;99.90;;;;;;4936675;29;20601;-70
2021/10/16 09:00:41;;;;;;;1.80;1.70;;;11.50;99.90;;;;;;4936444;29;20569;-70
2021/10/16 09:03:25;;;;;;;2.13;2.00;;;11.50;99.90;;;;;;4935881;29;20493;-70
2021/10/16 09:06:14;;;;;;;2.30;1.60;;;11.60;99.90;;;;;;4936426;29;20512;-69
2021/10/16 09:08:47;;;;;;;2.50;1.67;;;11.70;99.90;;;;;;4932800;29;20525;-68
2021/10/16 09:11:25;;;;;;;2.23;2.00;;;11.70;99.90;;;;;;4935529;29;21021;-68
2021/10/16 09:13:55;;;;;;;3.80;2.20;;;11.70;99.90;;;;;;4935676;29;20457;-68
2021/10/16 09:16:34;;;;;;;1.70;1.50;;;11.70;99.90;;;;;;4936957;29;20496;-68
2021/10/16 09:19:08;;;;;;;1.90;1.90;;;11.80;99.90;;;;;;4939027;29;20824;-68
2021/10/16 09:21:35;;;;;;;7.33;2.10;;;11.80;99.90;;;;;;4938110;29;20478;-68
2021/10/16 09:24:06;;;;;;;2.20;1.30;;;11.80;99.90;;;;;;4937888;29;20521;-69
2021/10/16 09:26:34;;;;;;;2.37;1.80;;;11.90;99.90;;;;;;4937198;29;20473;-68
2021/10/16 09:29:03;;;;;;;4.83;1.80;;;12.00;99.90;;;;;;4935806;29;20473;-68
2021/10/16 09:31:36;;;;;;;5.70;2.43;;;12.10;99.90;;;;;;4935465;29;20493;-68
2021/10/16 09:34:03;;;;;;;5.17;2.17;;;12.10;99.90;;;;;;4936591;29;20524;-68
2021/10/16 09:36:31;;;;;;;4.70;2.10;;;12.20;99.90;;;;;;4936210;29;20466;-68
2021/10/16 09:38:59;;;;;;;3.10;2.10;;;12.30;99.90;;;;;;4934998;29;20477;-68
2021/10/16 09:41:28;;;;;;;5.13;1.90;;;12.30;99.90;;;;;;4934790;29;20539;-67
2021/10/16 09:43:55;;;;;;;1.70;1.40;;;12.40;99.90;;;;;;4935176;29;20556;-69
2021/10/16 09:46:23;;;;;;;2.53;1.97;;;12.40;99.90;;;;;;4934955;29;20469;-68
2021/10/16 09:48:50;;;;;;;2.10;1.67;;;12.40;99.90;;;;;;4935152;29;20882;-68
2021/10/16 09:51:17;;;;;;;2.63;1.70;;;12.50;99.90;;;;;;4934962;29;20601;-68
2021/10/16 09:53:46;;;;;;;4.30;1.77;;;12.60;99.90;;;;;;4934174;29;20461;-68
2021/10/16 09:56:14;;;;;;;1.33;1.23;;;12.70;99.90;;;;;;4934668;29;20533;-68
2021/10/16 09:58:42;;;;;;;2.67;2.47;;;12.70;99.90;;;;;;4934897;29;20469;-68
2021/10/16 10:01:11;;;;;;;3.37;1.70;;;12.70;99.90;;;;;;4934908;29;20512;-68
2021/10/16 10:03:42;;;;;;;4.87;1.40;;;12.70;99.90;;;;;;4934821;29;20525;-68
2021/10/16 10:06:13;;;;;;;4.50;1.60;;;12.70;99.90;;;;;;4934958;29;20486;-68
2021/10/16 10:08:41;;;;;;;2.97;2.20;;;12.70;99.90;;;;;;4934474;29;20474;-68
2021/10/16 10:11:09;;;;;;;3.00;1.33;;;12.60;99.90;;;;;;4934302;29;20549;-68
2021/10/16 10:13:36;;;;;;;8.67;2.30;;;12.50;99.90;;;;;;4934503;29;20481;-68
2021/10/16 10:16:05;;;;;;;1.63;1.53;;;12.50;99.90;;;;;;4935002;29;20540;-71
2021/10/16 10:21:20;;;;;;;3.53;1.80;;;12.60;99.90;;;;;;4936493;29;20469;-72
2021/10/16 10:23:55;;;;;;;1.80;1.70;;;12.60;99.90;;;;;;4934386;29;20895;-72
2021/10/16 10:26:26;;;;;;;3.30;1.53;;;12.60;99.90;;;;;;4934595;29;20476;-72
2021/10/16 10:28:55;;;;;;;1.80;1.50;;;12.70;99.90;;;;;;4934983;29;20469;-71
2021/10/16 10:31:59;;;;;;;2.57;1.40;;;12.80;99.90;;;;;;4934692;29;20488;-71
2021/10/16 10:34:30;;;;;;;2.20;2.10;;;12.90;99.90;;;;;;4939426;29;20473;-71
2021/10/16 10:37:01;;;;;;;1.77;1.60;;;12.90;99.90;;;;;;4939404;29;20464;-71
2021/10/16 10:39:42;;;;;;;7.20;1.50;;;12.90;99.90;;;;;;4938814;29;20565;-71
2021/10/16 10:42:46;;;;;;;1.87;1.40;;;12.80;99.90;;;;;;4940080;29;20489;-71
2021/10/16 10:45:39;;;;;;;2.00;1.90;;;12.90;99.90;;;;;;4939528;29;20829;-71
2021/10/16 10:48:13;;;;;;;3.53;2.03;;;13.10;99.90;;;;;;4940003;29;20461;-71
2021/10/16 10:50:55;;;;;;;1.60;1.50;;;13.10;99.90;;;;;;4939232;29;20836;-71
2021/10/16 10:53:28;;;;;;;1.93;1.83;;;13.20;99.90;;;;;;4938907;29;20458;-71
2021/10/16 10:55:56;;;;;;;3.13;1.97;;;13.30;99.90;;;;;;4939399;29;20470;-71
2021/10/16 10:58:24;;;;;;;3.20;2.23;;;13.40;99.90;;;;;;4939945;29;20464;-71
2021/10/16 11:00:52;;;;;;;1.60;1.50;;;13.40;99.90;;;;;;4938970;29;21061;-69
2021/10/16 11:03:46;;;;;;;2.43;1.73;;;13.30;99.90;;;;;;4938651;29;20537;-69
2021/10/16 11:06:18;;;;;;;2.17;1.97;;;13.40;99.90;;;;;;4939145;29;20508;-69
2021/10/16 11:08:45;;;;;;;1.70;1.50;;;13.40;99.90;;;;;;4938718;29;20469;-69
2021/10/16 11:11:12;;;;;;;1.40;1.40;;;13.40;99.90;;;;;;4938550;29;20492;-69
2021/10/16 11:13:39;;;;;;;5.90;2.00;;;13.40;99.90;;;;;;4938246;29;20989;-69
2021/10/16 11:16:07;;;;;;;1.67;1.53;;;13.40;99.90;;;;;;4938705;29;20471;-71
2021/10/16 11:18:35;;;;;;;5.10;1.63;;;13.50;99.90;;;;;;4938749;29;20525;-71
2021/10/16 11:21:05;;;;;;;1.63;1.53;;;13.50;99.90;;;;;;4938589;29;20505;-70
2021/10/16 11:23:32;;;;;;;3.00;1.53;;;13.40;99.90;;;;;;4937939;29;20489;-71
2021/10/16 11:26:00;;;;;;;4.10;1.67;;;13.40;99.90;;;;;;4937721;29;20475;-71
2021/10/16 11:28:27;;;;;;;2.30;1.60;;;13.40;99.90;;;;;;4938390;29;20872;-71
2021/10/16 11:30:55;;;;;;;3.90;1.93;;;13.50;99.90;;;;;;4938518;29;20485;-69
2021/10/16 11:33:24;;;;;;;3.20;2.20;;;13.50;99.90;;;;;;4938117;29;20552;-71
2021/10/16 11:35:55;;;;;;;4.80;1.27;;;13.50;99.90;;;;;;4938221;29;21005;-71
2021/10/16 11:38:26;;;;;;;4.33;1.67;;;13.50;99.90;;;;;;4937737;29;20553;-71
2021/10/16 11:40:54;;;;;;;2.23;1.57;;;13.50;99.90;;;;;;4937190;29;20489;-69
2021/10/16 11:43:23;;;;;;;2.60;1.37;;;13.60;99.90;;;;;;4937288;29;20493;-70
2021/10/16 11:45:52;;;;;;;3.37;1.83;;;13.60;99.90;;;;;;4938343;29;20488;-71
2021/10/16 11:48:20;;;;;;;3.73;1.80;;;13.50;99.90;;;;;;4938354;29;20553;-69
2021/10/16 11:50:49;;;;;;;2.83;2.27;;;13.40;99.90;;;;;;4937771;29;20548;-69
2021/10/16 11:53:17;;;;;;;3.10;1.60;;;13.40;99.90;;;;;;4936909;29;20462;-70
2021/10/16 11:55:47;;;;;;;2.03;1.47;;;13.40;99.90;;;;;;4937113;29;20465;-70
2021/10/16 11:58:17;;;;;;;4.83;1.80;;;13.40;99.90;;;;;;4937438;29;20466;-67
2021/10/16 12:00:45;;;;;;;3.03;1.47;;;13.40;99.90;;;;;;4937207;29;20568;-67
2021/10/16 12:03:14;;;;;;;1.43;1.33;;;13.40;99.90;;;;;;4937003;29;21030;-66
2021/10/16 12:05:41;;;;;;;2.00;1.30;;;13.40;99.90;;;;;;4936851;29;20501;-66
2021/10/16 12:08:15;;;;;;;1.43;1.00;;;13.40;99.90;;;;;;4937477;29;20529;-67
2021/10/16 12:10:52;;;;;;;2.50;1.93;;;13.40;99.90;;;;;;4937012;29;20492;-67
2021/10/16 12:13:32;;;;;;;1.43;1.33;;;13.40;99.90;;;;;;4936996;29;20465;-67
2021/10/16 12:15:59;;;;;;;1.43;1.33;;;13.40;99.90;;;;;;4936936;29;21154;-68
2021/10/16 12:18:29;;;;;;;2.80;1.40;;;13.40;99.90;;;;;;4936932;29;20919;-67
2021/10/16 12:20:58;;;;;;;4.00;1.80;;;13.50;99.90;;;;;;4937013;29;20493;-67
2021/10/16 12:23:40;;;;;;;3.23;1.90;;;13.40;99.90;;;;;;4936141;29;20589;-67
2021/10/16 12:26:18;;;;;;;5.23;1.67;;;13.40;99.90;;;;;;4936320;29;20462;-68
2021/10/16 12:28:45;;;;;;;1.43;1.30;;;13.40;99.90;;;;;;4936854;29;20473;-68
2021/10/16 12:31:13;;;;;;;1.50;1.40;;;13.40;99.90;;;;;;4936671;29;20493;-68
2021/10/16 12:34:03;;;;;;;2.23;1.27;;;13.50;99.90;;;;;;4936304;29;20969;-68
2021/10/16 12:36:32;;;;;;;5.53;2.20;;;13.50;99.90;;;;;;4936427;29;20827;-68
2021/10/16 12:38:59;;;;;;;1.70;1.60;;;13.50;99.90;;;;;;4935988;29;20469;-68
2021/10/16 12:41:33;;;;;;;1.70;1.60;;;13.60;99.90;;;;;;4935893;29;20939;-67
2021/10/16 12:44:13;;;;;;;3.07;1.80;;;13.50;99.90;;;;;;4936050;29;20489;-68
2021/10/16 12:46:41;;;;;;;3.20;1.57;;;13.50;99.90;;;;;;4935942;29;20512;-67
2021/10/16 12:49:07;;;;;;;3.43;1.50;;;13.40;99.90;;;;;;4935922;29;20529;-67
2021/10/16 12:51:43;;;;;;;1.50;1.23;;;13.40;99.90;;;;;;4935933;29;20485;-67
2021/10/16 12:54:09;;;;;;;2.43;1.70;;;13.40;99.90;;;;;;4935022;29;20461;-69
2021/10/16 12:56:37;;;;;;;6.37;1.97;;;13.40;99.90;;;;;;4935658;29;20828;-68
2021/10/16 12:59:04;;;;;;;1.47;1.37;;;13.40;99.90;;;;;;4935993;29;20870;-70
2021/10/16 13:01:31;;;;;;;1.23;1.23;;;13.50;99.90;;;;;;4935766;29;20863;-71
2021/10/16 13:03:58;;;;;;;2.73;1.40;;;13.40;99.90;;;;;;4935438;29;20925;-71
2021/10/16 13:06:25;;;;;;;3.90;1.80;;;13.40;99.90;;;;;;4936186;29;20506;-71
2021/10/16 13:08:51;;;;;;;1.87;1.50;;;13.40;99.90;;;;;;4935412;29;20884;-68
2021/10/16 13:11:18;;;;;;;2.67;2.00;;;13.40;99.90;;;;;;4934959;29;21048;-68
2021/10/16 13:13:46;;;;;;;2.13;1.50;;;13.40;99.90;;;;;;4935848;29;20461;-70
2021/10/16 13:16:13;;;;;;;2.67;1.30;;;13.30;99.90;;;;;;4936776;29;20878;-70
2021/10/16 13:18:40;;;;;;;2.50;1.53;;;13.30;99.90;;;;;;4936508;29;20473;-70
2021/10/16 13:21:09;;;;;;;3.50;1.60;;;13.40;99.90;;;;;;4936162;29;20537;-70
2021/10/16 13:23:36;;;;;;;3.10;1.63;;;13.40;99.90;;;;;;4936017;29;20489;-70
2021/10/16 13:26:02;;;;;;;3.33;2.07;;;13.40;99.90;;;;;;4935939;29;20499;-69
2021/10/16 13:28:29;;;;;;;2.87;1.30;;;13.50;99.90;;;;;;4936715;29;20473;-69
2021/10/16 13:30:57;;;;;;;2.97;1.60;;;13.50;99.90;;;;;;4935947;29;21000;-69
2021/10/16 13:33:24;;;;;;;2.03;1.47;;;13.40;99.90;;;;;;4935551;29;20458;-69
2021/10/16 13:35:51;;;;;;;2.53;1.20;;;13.50;99.90;;;;;;4935948;29;20471;-69
2021/10/16 13:38:17;;;;;;;1.80;1.23;;;13.40;99.90;;;;;;4935946;29;20470;-69
2021/10/16 13:40:46;;;;;;;3.93;1.40;;;13.40;99.90;;;;;;4935079;29;20486;-69
2021/10/16 13:43:15;;;;;;;3.67;1.63;;;13.40;99.90;;;;;;4935466;29;20806;-70
2021/10/16 13:45:41;;;;;;;5.30;1.97;;;13.30;99.90;;;;;;4935568;29;20797;-69
2021/10/16 13:48:09;;;;;;;1.40;1.40;;;13.30;99.90;;;;;;4935574;29;20863;-70
2021/10/16 13:50:36;;;;;;;5.17;1.60;;;13.20;99.90;;;;;;4935602;29;20482;-70
2021/10/16 13:53:03;;;;;;;1.87;1.60;;;13.30;99.90;;;;;;4934874;29;20469;-70
2021/10/16 13:55:29;;;;;;;1.40;1.40;;;13.30;99.90;;;;;;4934812;29;20465;-70
2021/10/16 13:57:56;;;;;;;1.40;1.40;;;13.30;99.90;;;;;;4934876;29;20525;-71
2021/10/16 14:00:23;;;;;;;4.70;1.90;;;13.30;99.90;;;;;;4934769;29;20473;-71
2021/10/16 14:02:50;;;;;;;3.97;1.23;;;13.40;99.90;;;;;;4934877;29;20517;-71
2021/10/16 14:05:18;;;;;;;1.47;1.30;;;13.40;99.90;;;;;;4935046;29;20544;-71
2021/10/16 14:07:45;;;;;;;6.03;2.50;;;13.40;99.90;;;;;;4934112;29;20521;-70
2021/10/16 14:10:11;;;;;;;2.33;1.53;;;13.50;99.90;;;;;;4934360;29;20470;-71
2021/10/16 14:12:38;;;;;;;4.60;1.47;;;13.50;99.90;;;;;;4934874;29;20466;-69
2021/10/16 14:15:06;;;;;;;1.40;1.30;;;13.50;99.90;;;;;;4934631;29;20544;-71
2021/10/16 14:17:32;;;;;;;2.93;1.30;;;13.50;99.90;;;;;;4935228;29;20469;-70
2021/10/16 14:19:59;;;;;;;2.00;1.50;;;13.40;99.90;;;;;;4934516;29;20465;-71
2021/10/16 14:22:27;;;;;;;3.17;1.37;;;13.40;99.90;;;;;;4934503;29;20633;-71
2021/10/16 14:24:54;;;;;;;3.47;1.10;;;13.40;99.90;;;;;;4933675;29;20551;-71
2021/10/16 14:27:21;;;;;;;5.13;1.90;;;13.30;99.90;;;;;;4934416;29;20969;-70
2021/10/16 14:29:50;;;;;;;2.37;1.50;;;13.30;99.90;;;;;;4934368;29;20541;-70
2021/10/16 14:32:17;;;;;;;1.10;1.10;;;13.10;99.90;;;;;;4934538;29;20501;-72
2021/10/16 14:34:43;;;;;;;5.27;2.10;;;13.10;99.90;;;;;;4934685;29;20935;-71
2021/10/16 14:37:10;;;;;;;2.80;1.80;;;13.00;99.90;;;;;;4934751;29;20884;-71
2021/10/16 14:39:38;;;;;;;1.80;1.70;;;13.00;99.90;;;;;;4933653;29;20489;-70
2021/10/16 14:42:05;;;;;;;2.13;2.03;;;12.90;99.90;;;;;;4934163;29;20489;-70
2021/10/16 14:44:32;;;;;;;1.43;1.33;;;12.80;99.90;;;;;;4934650;29;20493;-71
2021/10/16 14:46:58;;;;;;;6.93;1.60;;;12.80;99.90;;;;;;4934629;29;20997;-71
2021/10/16 14:49:25;;;;;;;2.43;1.70;;;12.70;99.90;;;;;;4935400;29;20880;-70
2021/10/16 14:51:52;;;;;;;2.33;1.53;;;12.60;99.90;;;;;;4934518;29;20485;-72
2021/10/16 14:54:18;;;;;;;3.37;1.20;;;12.60;99.90;;;;;;4933360;29;20461;-71
2021/10/16 14:56:46;;;;;;;2.73;1.43;;;12.50;99.90;;;;;;4934127;29;20473;-71
2021/10/16 14:59:13;;;;;;;2.80;1.77;;;12.50;99.90;;;;;;4934640;29;20873;-71
2021/10/16 15:01:40;;;;;;;4.17;1.60;;;12.50;99.90;;;;;;4934366;29;20498;-70
2021/10/16 15:04:06;;;;;;;1.87;1.40;;;12.40;99.90;;;;;;4934066;29;20493;-70
2021/10/16 15:06:33;;;;;;;2.57;1.40;;;12.40;99.90;;;;;;4934208;29;20536;-71
2021/10/16 15:09:00;;;;;;;1.50;1.40;;;12.40;99.90;;;;;;4933824;29;20524;-71
2021/10/16 15:11:26;;;;;;;2.53;1.30;;;12.30;99.90;;;;;;4933863;29;20497;-71
2021/10/16 15:13:54;;;;;;;7.13;1.80;;;12.30;99.90;;;;;;4934268;29;20253;-71
2021/10/16 15:16:21;;;;;;;1.40;1.40;;;12.20;99.90;;;;;;4934164;29;20473;-71
2021/10/16 15:18:48;;;;;;;1.80;1.70;;;12.10;99.90;;;;;;4936414;29;20284;-71
2021/10/16 15:21:15;;;;;;;1.98;1.30;;;12.00;99.90;;;;;;4937906;29;20293;-71
2021/10/16 15:23:42;;;;;;;3.70;1.38;;;12.00;99.90;;;;;;4937260;29;20613;-71
2021/10/16 15:26:08;;;;;;;2.05;1.55;;;12.00;99.90;;;;;;4937710;29;20210;-67
2021/10/16 15:28:36;;;;;;;1.90;1.60;;;11.90;99.90;;;;;;4937692;29;20239;-67
2021/10/16 15:31:04;;;;;;;4.13;1.88;;;11.90;99.90;;;;;;4937755;29;20237;-67
2021/10/16 15:33:31;;;;;;;1.50;1.40;;;11.90;99.90;;;;;;4937681;29;20210;-66
2021/10/16 15:35:58;;;;;;;3.17;1.30;;;11.90;99.90;;;;;;4937941;29;20221;-66
2021/10/16 15:38:24;;;;;;;1.90;1.80;;;11.90;99.90;;;;;;4938418;29;20210;-66
2021/10/16 15:40:51;;;;;;;2.05;1.73;;;11.90;99.90;;;;;;4937321;29;20230;-66
2021/10/16 15:43:18;;;;;;;2.00;1.63;;;11.90;99.90;;;;;;4956199;29;20209;-66
2021/10/16 15:45:44;;;;;;;2.23;2.13;;;11.90;99.90;;;;;;4956833;29;20247;-66
2021/10/16 15:48:12;;;;;;;1.58;1.58;;;11.90;99.90;;;;;;4956884;29;20523;-69
2021/10/16 15:50:39;;;;;;;1.60;1.48;;;11.80;99.90;;;;;;4956354;29;20233;-69
2021/10/16 15:53:06;;;;;;;5.28;1.77;;;11.80;99.90;;;;;;4956007;29;20205;-70
2021/10/16 15:55:32;;;;;;;6.55;1.90;;;11.80;99.90;;;;;;4956596;29;20280;-69
2021/10/16 15:57:59;;;;;;;1.35;1.25;;;11.80;99.90;;;;;;4956763;29;20217;-70
2021/10/16 16:00:26;;;;;;;2.58;1.70;;;11.80;99.90;;;;;;4956422;29;20610;-70
2021/10/16 16:02:52;;;;;;;1.67;1.58;;;11.70;99.90;;;;;;4956171;29;20213;-70
2021/10/16 16:05:20;;;;;;;2.63;1.65;;;11.70;99.90;;;;;;4956529;29;20312;-68
2021/10/16 16:07:47;;;;;;;2.95;2.80;;;11.70;99.90;;;;;;4955919;28;20213;-69
2021/10/16 16:10:14;;;;;;;3.10;2.78;;;11.60;99.90;;;;;;4956510;29;20252;-67
2021/10/16 16:12:41;;;;;;;3.28;2.53;;;11.60;99.90;;;;;;4956192;29;20220;-68
2021/10/16 16:15:08;;;;;;;3.92;1.77;;;11.60;99.90;;;;;;4956584;29;20201;-69
2021/10/16 16:17:35;;;;;;;3.45;2.83;;;11.60;99.90;;;;;;4958958;28;20213;-68
2021/10/16 16:20:02;;;;;;;2.78;1.80;;;11.60;99.90;;;;;;4963583;29;20252;-68
2021/10/16 16:22:30;;;;;;;1.90;1.67;;;11.50;99.90;;;;;;4960463;29;20776;-68
2021/10/16 16:24:57;;;;;;;5.53;2.20;;;11.50;99.90;;;;;;4955510;29;20677;-68
2021/10/16 16:27:24;;;;;;;2.88;2.65;;;11.50;99.90;;;;;;4955995;29;20205;-68
2021/10/16 16:29:50;;;;;;;4.55;2.55;;;11.40;99.90;;;;;;4954521;28;20221;-68
2021/10/16 16:32:17;;;;;;;3.50;2.15;;;11.40;99.90;;;;;;4955533;29;20225;-68
2021/10/16 16:34:44;;;;;;;1.92;1.83;;;11.40;99.90;;;;;;4955537;29;20579;-68
2021/10/16 16:37:11;;;;;;;2.80;1.83;;;11.40;99.90;;;;;;4955905;29;20217;-68
2021/10/16 16:39:39;;;;;;;3.15;2.95;;;11.30;99.90;;;;;;4955177;29;20213;-68
2021/10/16 16:42:06;;;;;;;3.80;2.40;;;11.30;99.90;;;;;;4955706;29;20284;-67
2021/10/16 16:44:32;;;;;;;2.60;2.40;;;11.30;99.90;;;;;;4955382;29;20285;-68
2021/10/16 16:46:59;;;;;;;9.10;2.60;;;11.30;99.90;;;;;;4955770;29;20573;-68
2021/10/16 16:49:26;;;;;;;5.47;3.50;;;11.30;99.90;;;;;;4955513;29;20221;-68
2021/10/16 16:51:53;;;;;;;2.67;2.22;;;11.30;99.90;;;;;;4955528;28;20328;-67
2021/10/16 16:54:20;;;;;;;1.95;1.85;;;11.20;99.90;;;;;;4954661;29;20217;-67
2021/10/16 16:56:48;;;;;;;3.28;2.10;;;11.20;99.90;;;;;;4955282;29;20209;-67
2021/10/16 16:59:15;;;;;;;2.63;2.42;;;11.20;99.90;;;;;;4955085;29;20215;-67